Terminal Aerodrome Forecast
Issued by NWS San Angelo, TX

Home | Current Version | Previous Version | Text Only | Print | Product List | Glossary On
Versions: 1 2 3 4 5 6 7 8 9 10 11 12
000
FTUS44 KSJT 271700
TAFABI
TAF
KABI 271731Z 2718/2818 12008KT P6SM BKN060
     FM281500 19013KT P6SM SKC=

USA.gov is the U.S. government's official web portal to all federal, state and local government web resources and services.